sensor_id;sensor_type;location;lat;lon;timestamp;pressure;altitude;pressure_sealevel;temperature;humidity
70411;BME280;57832;46.038;11.398;2022-09-09T00:03:47;96654.69;;;17.87;100.00
70411;BME280;57832;46.038;11.398;2022-09-09T00:06:21;96653.88;;;17.87;100.00
70411;BME280;57832;46.038;11.398;2022-09-09T00:14:23;96660.47;;;16.82;100.00
70411;BME280;57832;46.038;11.398;2022-09-09T00:16:56;96646.63;;;17.65;100.00
70411;BME280;57832;46.038;11.398;2022-09-09T00:22:23;96632.47;;;17.97;100.00
70411;BME280;57832;46.038;11.398;2022-09-09T00:24:55;96647.34;;;17.10;100.00
70411;BME280;57832;46.038;11.398;2022-09-09T00:27:30;96658.66;;;16.44;100.00
70411;BME280;57832;46.038;11.398;2022-09-09T00:30:12;96661.63;;;16.76;100.00
70411;BME280;57832;46.038;11.398;2022-09-09T00:32:39;96655.53;;;16.75;100.00
70411;BME280;57832;46.038;11.398;2022-09-09T00:36:07;96662.81;;;16.50;100.00
70411;BME280;57832;46.038;11.398;2022-09-09T00:38:05;96662.72;;;16.55;100.00
70411;BME280;57832;46.038;11.398;2022-09-09T00:40:41;96664.38;;;16.51;100.00
70411;BME280;57832;46.038;11.398;2022-09-09T00:48:39;96661.63;;;16.76;100.00
70411;BME280;57832;46.038;11.398;2022-09-09T00:56:47;96654.09;;;16.83;100.00
70411;BME280;57832;46.038;11.398;2022-09-09T00:59:35;96660.25;;;16.97;100.00
70411;BME280;57832;46.038;11.398;2022-09-09T01:04:51;96649.81;;;17.34;100.00
70411;BME280;57832;46.038;11.398;2022-09-09T01:07:18;96651.41;;;17.35;100.00
70411;BME280;57832;46.038;11.398;2022-09-09T01:09:59;96652.56;;;17.15;100.00
70411;BME280;57832;46.038;11.398;2022-09-09T01:12:52;96649.06;;;17.47;100.00
70411;BME280;57832;46.038;11.398;2022-09-09T01:15:25;96647.00;;;17.44;100.00
70411;BME280;57832;46.038;11.398;2022-09-09T01:20:31;96651.53;;;17.58;100.00
70411;BME280;57832;46.038;11.398;2022-09-09T01:28:47;96665.22;;;17.18;100.00
70411;BME280;57832;46.038;11.398;2022-09-09T01:31:28;96667.22;;;17.26;100.00
70411;BME280;57832;46.038;11.398;2022-09-09T01:33:55;96660.56;;;17.43;100.00
70411;BME280;57832;46.038;11.398;2022-09-09T01:36:29;96660.66;;;17.65;100.00
70411;BME280;57832;46.038;11.398;2022-09-09T01:38:58;96654.00;;;17.96;100.00
70411;BME280;57832;46.038;11.398;2022-09-09T01:41:24;96654.66;;;17.74;100.00
70411;BME280;57832;46.038;11.398;2022-09-09T01:43:50;96651.72;;;17.89;100.00
70411;BME280;57832;46.038;11.398;2022-09-09T01:46:16;96652.59;;;17.84;100.00
70411;BME280;57832;46.038;11.398;2022-09-09T01:48:43;96652.13;;;17.68;100.00
70411;BME280;57832;46.038;11.398;2022-09-09T01:51:09;96645.25;;;17.40;100.00
70411;BME280;57832;46.038;11.398;2022-09-09T01:53:39;96637.88;;;17.64;100.00
70411;BME280;57832;46.038;11.398;2022-09-09T01:56:23;96643.00;;;17.00;100.00
70411;BME280;57832;46.038;11.398;2022-09-09T01:59:06;96637.41;;;17.01;100.00
70411;BME280;57832;46.038;11.398;2022-09-09T02:05:00;96634.41;;;16.89;100.00
70411;BME280;57832;46.038;11.398;2022-09-09T02:07:18;96626.56;;;17.17;100.00
70411;BME280;57832;46.038;11.398;2022-09-09T02:09:47;96623.53;;;17.65;100.00
70411;BME280;57832;46.038;11.398;2022-09-09T02:12:18;96627.16;;;17.69;100.00
70411;BME280;57832;46.038;11.398;2022-09-09T02:14:52;96641.94;;;17.15;100.00
70411;BME280;57832;46.038;11.398;2022-09-09T02:17:26;96640.13;;;17.43;100.00
70411;BME280;57832;46.038;11.398;2022-09-09T02:20:03;96637.19;;;17.59;100.00
70411;BME280;57832;46.038;11.398;2022-09-09T02:22:31;96657.25;;;16.85;100.00
70411;BME280;57832;46.038;11.398;2022-09-09T02:25:00;96656.19;;;16.67;100.00
70411;BME280;57832;46.038;11.398;2022-09-09T02:27:25;96660.34;;;16.73;100.00
70411;BME280;57832;46.038;11.398;2022-09-09T02:29:52;96650.66;;;17.01;100.00
70411;BME280;57832;46.038;11.398;2022-09-09T02:32:22;96661.44;;;16.53;100.00
70411;BME280;57832;46.038;11.398;2022-09-09T02:34:51;96652.97;;;17.22;100.00
70411;BME280;57832;46.038;11.398;2022-09-09T02:37:22;96645.28;;;17.20;100.00
70411;BME280;57832;46.038;11.398;2022-09-09T02:39:50;96644.38;;;16.97;100.00
70411;BME280;57832;46.038;11.398;2022-09-09T02:42:16;96647.59;;;16.75;100.00
70411;BME280;57832;46.038;11.398;2022-09-09T02:44:41;96637.31;;;17.07;100.00
70411;BME280;57832;46.038;11.398;2022-09-09T02:52:54;96634.59;;;16.60;100.00
70411;BME280;57832;46.038;11.398;2022-09-09T02:55:51;96641.03;;;16.53;100.00
70411;BME280;57832;46.038;11.398;2022-09-09T02:58:20;96641.38;;;16.09;100.00
70411;BME280;57832;46.038;11.398;2022-09-09T03:00:48;96634.47;;;16.32;100.00
70411;BME280;57832;46.038;11.398;2022-09-09T03:03:14;96626.88;;;16.44;100.00
70411;BME280;57832;46.038;11.398;2022-09-09T03:05:42;96631.50;;;15.95;100.00
70411;BME280;57832;46.038;11.398;2022-09-09T03:08:07;96640.63;;;16.46;100.00
70411;BME280;57832;46.038;11.398;2022-09-09T03:10:33;96636.53;;;16.35;100.00
70411;BME280;57832;46.038;11.398;2022-09-09T03:13:00;96635.91;;;16.05;100.00
70411;BME280;57832;46.038;11.398;2022-09-09T03:15:25;96634.38;;;16.56;100.00
70411;BME280;57832;46.038;11.398;2022-09-09T03:17:55;96621.38;;;16.93;100.00
70411;BME280;57832;46.038;11.398;2022-09-09T03:20:23;96620.75;;;16.82;100.00
70411;BME280;57832;46.038;11.398;2022-09-09T03:22:49;96612.81;;;17.15;100.00
70411;BME280;57832;46.038;11.398;2022-09-09T03:25:15;96612.72;;;16.87;100.00
70411;BME280;57832;46.038;11.398;2022-09-09T03:27:40;96628.44;;;16.07;100.00
70411;BME280;57832;46.038;11.398;2022-09-09T03:30:06;96616.09;;;16.74;100.00
70411;BME280;57832;46.038;11.398;2022-09-09T03:32:32;96613.78;;;17.05;100.00
70411;BME280;57832;46.038;11.398;2022-09-09T03:34:58;96599.63;;;17.10;100.00
70411;BME280;57832;46.038;11.398;2022-09-09T03:37:23;96604.72;;;16.40;100.00
70411;BME280;57832;46.038;11.398;2022-09-09T03:39:49;96622.38;;;16.45;100.00
70411;BME280;57832;46.038;11.398;2022-09-09T03:42:15;96615.34;;;16.54;100.00
70411;BME280;57832;46.038;11.398;2022-09-09T03:44:45;96622.00;;;15.94;100.00
70411;BME280;57832;46.038;11.398;2022-09-09T03:47:18;96633.88;;;16.73;100.00
70411;BME280;57832;46.038;11.398;2022-09-09T03:49:45;96618.00;;;17.20;100.00
70411;BME280;57832;46.038;11.398;2022-09-09T03:52:12;96605.16;;;17.13;100.00
70411;BME280;57832;46.038;11.398;2022-09-09T03:54:37;96601.03;;;17.35;100.00
70411;BME280;57832;46.038;11.398;2022-09-09T03:57:03;96613.94;;;16.43;100.00
70411;BME280;57832;46.038;11.398;2022-09-09T03:59:30;96612.81;;;16.49;100.00
70411;BME280;57832;46.038;11.398;2022-09-09T04:01:55;96615.97;;;16.13;100.00
70411;BME280;57832;46.038;11.398;2022-09-09T04:04:22;96620.22;;;16.47;100.00
70411;BME280;57832;46.038;11.398;2022-09-09T04:06:48;96623.03;;;16.55;100.00
70411;BME280;57832;46.038;11.398;2022-09-09T04:09:14;96619.31;;;16.18;100.00
70411;BME280;57832;46.038;11.398;2022-09-09T04:11:40;96615.88;;;16.37;100.00
70411;BME280;57832;46.038;11.398;2022-09-09T04:14:05;96609.38;;;16.81;100.00
70411;BME280;57832;46.038;11.398;2022-09-09T04:16:32;96607.69;;;17.04;100.00
70411;BME280;57832;46.038;11.398;2022-09-09T04:18:58;96606.50;;;16.97;100.00
70411;BME280;57832;46.038;11.398;2022-09-09T04:21:25;96605.72;;;16.77;100.00
70411;BME280;57832;46.038;11.398;2022-09-09T04:23:50;96598.25;;;16.98;100.00
70411;BME280;57832;46.038;11.398;2022-09-09T04:26:16;96602.13;;;16.87;100.00
70411;BME280;57832;46.038;11.398;2022-09-09T04:28:42;96600.56;;;17.47;100.00
70411;BME280;57832;46.038;11.398;2022-09-09T04:31:11;96603.13;;;16.91;100.00
70411;BME280;57832;46.038;11.398;2022-09-09T04:33:39;96608.66;;;17.09;100.00
70411;BME280;57832;46.038;11.398;2022-09-09T04:36:05;96595.53;;;17.31;100.00
70411;BME280;57832;46.038;11.398;2022-09-09T04:38:31;96584.66;;;17.33;100.00
70411;BME280;57832;46.038;11.398;2022-09-09T04:40:56;96581.41;;;17.50;100.00
70411;BME280;57832;46.038;11.398;2022-09-09T04:43:22;96579.84;;;17.35;100.00
70411;BME280;57832;46.038;11.398;2022-09-09T04:45:49;96570.50;;;17.37;100.00
70411;BME280;57832;46.038;11.398;2022-09-09T04:48:17;96572.19;;;17.33;100.00
70411;BME280;57832;46.038;11.398;2022-09-09T04:50:42;96573.34;;;17.27;100.00
70411;BME280;57832;46.038;11.398;2022-09-09T04:53:08;96569.94;;;17.13;100.00
70411;BME280;57832;46.038;11.398;2022-09-09T04:55:34;96558.66;;;17.21;100.00
70411;BME280;57832;46.038;11.398;2022-09-09T04:58:03;96565.09;;;17.15;100.00
70411;BME280;57832;46.038;11.398;2022-09-09T05:00:30;96558.66;;;17.21;100.00
70411;BME280;57832;46.038;11.398;2022-09-09T05:02:56;96560.59;;;17.29;100.00
70411;BME280;57832;46.038;11.398;2022-09-09T05:05:21;96564.03;;;17.44;100.00
70411;BME280;57832;46.038;11.398;2022-09-09T05:07:47;96569.53;;;17.19;100.00
70411;BME280;57832;46.038;11.398;2022-09-09T05:10:14;96583.84;;;17.32;100.00
70411;BME280;57832;46.038;11.398;2022-09-09T05:12:42;96585.16;;;17.49;100.00
70411;BME280;57832;46.038;11.398;2022-09-09T05:15:07;96590.53;;;17.58;100.00
70411;BME280;57832;46.038;11.398;2022-09-09T05:17:33;96583.34;;;17.72;100.00
70411;BME280;57832;46.038;11.398;2022-09-09T05:19:59;96589.84;;;17.66;100.00
70411;BME280;57832;46.038;11.398;2022-09-09T05:22:24;96596.31;;;17.87;100.00
70411;BME280;57832;46.038;11.398;2022-09-09T05:24:50;96605.56;;;17.90;100.00
70411;BME280;57832;46.038;11.398;2022-09-09T05:27:18;96608.59;;;17.97;100.00
70411;BME280;57832;46.038;11.398;2022-09-09T05:29:45;96609.28;;;17.75;100.00
70411;BME280;57832;46.038;11.398;2022-09-09T05:32:11;96600.31;;;18.13;100.00
70411;BME280;57832;46.038;11.398;2022-09-09T05:34:37;96606.22;;;18.10;100.00
70411;BME280;57832;46.038;11.398;2022-09-09T05:37:05;96612.84;;;17.43;100.00
70411;BME280;57832;46.038;11.398;2022-09-09T05:39:31;96616.00;;;17.45;100.00
70411;BME280;57832;46.038;11.398;2022-09-09T05:41:58;96627.78;;;17.66;100.00
70411;BME280;57832;46.038;11.398;2022-09-09T05:44:23;96623.03;;;17.91;100.00
70411;BME280;57832;46.038;11.398;2022-09-09T05:46:52;96609.06;;;18.13;100.00
70411;BME280;57832;46.038;11.398;2022-09-09T05:49:19;96606.03;;;18.43;100.00
70411;BME280;57832;46.038;11.398;2022-09-09T05:51:45;96608.66;;;18.20;100.00
70411;BME280;57832;46.038;11.398;2022-09-09T05:54:11;96620.16;;;18.52;100.00
70411;BME280;57832;46.038;11.398;2022-09-09T05:56:40;96618.81;;;17.76;100.00
70411;BME280;57832;46.038;11.398;2022-09-09T05:59:05;96621.56;;;17.85;100.00
70411;BME280;57832;46.038;11.398;2022-09-09T06:01:32;96619.13;;;17.33;100.00
70411;BME280;57832;46.038;11.398;2022-09-09T06:03:58;96606.06;;;17.64;100.00
70411;BME280;57832;46.038;11.398;2022-09-09T06:06:25;96593.47;;;17.98;100.00
70411;BME280;57832;46.038;11.398;2022-09-09T06:08:55;96584.06;;;18.51;100.00
70411;BME280;57832;46.038;11.398;2022-09-09T06:11:29;96584.09;;;18.14;100.00
70411;BME280;57832;46.038;11.398;2022-09-09T06:13:57;96596.63;;;17.30;100.00
70411;BME280;57832;46.038;11.398;2022-09-09T06:16:23;96588.19;;;17.56;100.00
70411;BME280;57832;46.038;11.398;2022-09-09T06:18:50;96580.84;;;18.17;100.00
70411;BME280;57832;46.038;11.398;2022-09-09T06:21:20;96575.63;;;18.49;100.00
70411;BME280;57832;46.038;11.398;2022-09-09T06:23:47;96563.88;;;18.72;100.00
70411;BME280;57832;46.038;11.398;2022-09-09T06:26:19;96565.00;;;18.49;100.00
70411;BME280;57832;46.038;11.398;2022-09-09T06:28:46;96554.00;;;18.64;100.00
70411;BME280;57832;46.038;11.398;2022-09-09T06:31:15;96548.53;;;19.24;100.00
70411;BME280;57832;46.038;11.398;2022-09-09T06:33:50;96536.81;;;19.33;100.00
70411;BME280;57832;46.038;11.398;2022-09-09T06:36:21;96532.38;;;19.78;100.00
70411;BME280;57832;46.038;11.398;2022-09-09T06:38:47;96542.97;;;19.60;100.00
70411;BME280;57832;46.038;11.398;2022-09-09T06:41:14;96543.94;;;19.64;100.00
70411;BME280;57832;46.038;11.398;2022-09-09T06:43:40;96529.69;;;19.60;100.00
70411;BME280;57832;46.038;11.398;2022-09-09T06:46:09;96538.19;;;19.88;100.00
70411;BME280;57832;46.038;11.398;2022-09-09T06:48:36;96531.50;;;20.09;100.00
70411;BME280;57832;46.038;11.398;2022-09-09T06:51:07;96527.56;;;20.15;100.00
70411;BME280;57832;46.038;11.398;2022-09-09T06:53:34;96536.97;;;20.03;100.00
70411;BME280;57832;46.038;11.398;2022-09-09T06:56:01;96547.78;;;19.98;100.00
70411;BME280;57832;46.038;11.398;2022-09-09T06:58:28;96541.94;;;20.40;100.00
70411;BME280;57832;46.038;11.398;2022-09-09T07:01:01;96542.91;;;20.35;100.00
70411;BME280;57832;46.038;11.398;2022-09-09T07:03:27;96542.91;;;20.35;100.00
70411;BME280;57832;46.038;11.398;2022-09-09T07:05:56;96549.38;;;19.50;100.00
70411;BME280;57832;46.038;11.398;2022-09-09T07:08:22;96550.25;;;19.28;100.00
70411;BME280;57832;46.038;11.398;2022-09-09T07:10:48;96560.28;;;20.24;100.00
70411;BME280;57832;46.038;11.398;2022-09-09T07:13:14;96572.16;;;18.71;100.00
70411;BME280;57832;46.038;11.398;2022-09-09T07:15:41;96587.00;;;18.72;100.00
70411;BME280;57832;46.038;11.398;2022-09-09T07:18:07;96577.03;;;19.00;100.00
70411;BME280;57832;46.038;11.398;2022-09-09T07:20:35;96575.13;;;19.24;100.00
70411;BME280;57832;46.038;11.398;2022-09-09T07:23:00;96565.88;;;18.90;100.00
70411;BME280;57832;46.038;11.398;2022-09-09T07:25:26;96567.84;;;18.84;100.00
70411;BME280;57832;46.038;11.398;2022-09-09T07:27:54;96576.47;;;18.58;100.00
70411;BME280;57832;46.038;11.398;2022-09-09T07:30:20;96574.56;;;18.81;100.00
70411;BME280;57832;46.038;11.398;2022-09-09T07:32:46;96580.91;;;18.71;100.00
70411;BME280;57832;46.038;11.398;2022-09-09T07:35:11;96578.44;;;18.52;100.00
70411;BME280;57832;46.038;11.398;2022-09-09T07:37:37;96586.72;;;18.51;100.00
70411;BME280;57832;46.038;11.398;2022-09-09T07:40:03;96600.19;;;18.18;100.00
70411;BME280;57832;46.038;11.398;2022-09-09T07:42:30;96610.59;;;18.28;100.00
70411;BME280;57832;46.038;11.398;2022-09-09T07:44:56;96609.44;;;18.43;100.00
70411;BME280;57832;46.038;11.398;2022-09-09T07:47:21;96601.50;;;18.43;100.00
70411;BME280;57832;46.038;11.398;2022-09-09T07:49:47;96605.19;;;17.97;100.00
70411;BME280;57832;46.038;11.398;2022-09-09T07:52:15;96613.31;;;17.86;100.00
70411;BME280;57832;46.038;11.398;2022-09-09T07:54:41;96619.22;;;17.97;100.00
70411;BME280;57832;46.038;11.398;2022-09-09T07:57:07;96616.81;;;18.24;100.00
70411;BME280;57832;46.038;11.398;2022-09-09T07:59:32;96626.06;;;18.49;100.00
70411;BME280;57832;46.038;11.398;2022-09-09T08:01:58;96622.56;;;18.40;100.00
70411;BME280;57832;46.038;11.398;2022-09-09T08:04:25;96626.84;;;18.49;100.00
70411;BME280;57832;46.038;11.398;2022-09-09T08:06:54;96630.66;;;18.80;100.00
70411;BME280;57832;46.038;11.398;2022-09-09T08:09:20;96627.16;;;18.70;100.00
70411;BME280;57832;46.038;11.398;2022-09-09T08:11:47;96635.25;;;17.92;100.00
70411;BME280;57832;46.038;11.398;2022-09-09T08:14:12;96626.72;;;18.18;100.00
70411;BME280;57832;46.038;11.398;2022-09-09T08:16:41;96605.78;;;18.30;100.00
70411;BME280;57832;46.038;11.398;2022-09-09T08:19:07;96612.81;;;17.84;100.00
70411;BME280;57832;46.038;11.398;2022-09-09T08:21:35;96614.47;;;18.08;100.00
70411;BME280;57832;46.038;11.398;2022-09-09T08:24:02;96611.63;;;18.41;100.00
70411;BME280;57832;46.038;11.398;2022-09-09T08:26:30;96621.06;;;18.47;100.00
70411;BME280;57832;46.038;11.398;2022-09-09T08:28:58;96634.94;;;18.44;100.00
70411;BME280;57832;46.038;11.398;2022-09-09T08:31:26;96643.25;;;18.29;100.00
70411;BME280;57832;46.038;11.398;2022-09-09T08:33:53;96643.97;;;18.07;100.00
70411;BME280;57832;46.038;11.398;2022-09-09T08:36:21;96633.72;;;18.28;100.00
70411;BME280;57832;46.038;11.398;2022-09-09T08:38:48;96625.78;;;18.50;100.00
70411;BME280;57832;46.038;11.398;2022-09-09T08:52:47;96639.81;;;18.74;100.00
70411;BME280;57832;46.038;11.398;2022-09-09T08:55:20;96636.59;;;18.77;100.00
70411;BME280;57832;46.038;11.398;2022-09-09T08:57:49;96626.38;;;19.15;100.00
70411;BME280;57832;46.038;11.398;2022-09-09T09:00:16;96629.59;;;19.03;100.00
70411;BME280;57832;46.038;11.398;2022-09-09T09:08:08;96631.94;;;19.05;100.00
70411;BME280;57832;46.038;11.398;2022-09-09T09:13:26;96624.84;;;19.63;100.00
70411;BME280;57832;46.038;11.398;2022-09-09T09:16:01;96626.66;;;20.03;100.00
70411;BME280;57832;46.038;11.398;2022-09-09T09:18:27;96613.41;;;20.29;100.00
70411;BME280;57832;46.038;11.398;2022-09-09T09:23:26;96601.66;;;20.74;100.00
70411;BME280;57832;46.038;11.398;2022-09-09T09:25:59;96602.66;;;21.08;100.00
70411;BME280;57832;46.038;11.398;2022-09-09T09:28:29;96586.81;;;21.80;100.00
70411;BME280;57832;46.038;11.398;2022-09-09T09:31:11;96579.84;;;22.73;100.00
70411;BME280;57832;46.038;11.398;2022-09-09T09:33:51;96586.72;;;21.98;100.00
70411;BME280;57832;46.038;11.398;2022-09-09T09:36:18;96595.56;;;21.90;100.00
70411;BME280;57832;46.038;11.398;2022-09-09T09:38:56;96587.00;;;22.05;100.00
70411;BME280;57832;46.038;11.398;2022-09-09T09:41:36;96594.81;;;21.50;100.00
70411;BME280;57832;46.038;11.398;2022-09-09T09:44:04;96598.97;;;20.83;100.00
70411;BME280;57832;46.038;11.398;2022-09-09T09:46:31;96601.06;;;21.16;100.00
70411;BME280;57832;46.038;11.398;2022-09-09T09:49:04;96598.75;;;23.01;100.00
70411;BME280;57832;46.038;11.398;2022-09-09T09:51:32;96591.25;;;22.82;100.00
70411;BME280;57832;46.038;11.398;2022-09-09T09:56:35;96600.88;;;21.68;100.00
70411;BME280;57832;46.038;11.398;2022-09-09T09:59:01;96592.66;;;22.46;100.00
70411;BME280;57832;46.038;11.398;2022-09-09T10:01:29;96592.25;;;22.90;100.00
70411;BME280;57832;46.038;11.398;2022-09-09T10:04:15;96604.00;;;22.64;100.00
70411;BME280;57832;46.038;11.398;2022-09-09T10:06:42;96598.63;;;22.97;100.00
70411;BME280;57832;46.038;11.398;2022-09-09T10:09:28;96594.66;;;22.70;100.00
70411;BME280;57832;46.038;11.398;2022-09-09T10:12:36;96589.63;;;23.02;100.00
70411;BME280;57832;46.038;11.398;2022-09-09T10:29:34;96572.91;;;23.05;100.00
70411;BME280;57832;46.038;11.398;2022-09-09T10:42:47;96575.16;;;22.36;100.00
70411;BME280;57832;46.038;11.398;2022-09-09T10:45:21;96575.84;;;22.24;100.00
70411;BME280;57832;46.038;11.398;2022-09-09T10:48:10;96564.81;;;22.04;100.00
70411;BME280;57832;46.038;11.398;2022-09-09T10:55:51;96565.69;;;21.36;100.00
70411;BME280;57832;46.038;11.398;2022-09-09T10:58:25;96576.56;;;21.31;100.00
70411;BME280;57832;46.038;11.398;2022-09-09T11:01:00;96571.63;;;22.02;100.00
70411;BME280;57832;46.038;11.398;2022-09-09T11:03:29;96578.84;;;22.77;100.00
70411;BME280;57832;46.038;11.398;2022-09-09T11:06:14;96572.97;;;22.50;100.00
70411;BME280;57832;46.038;11.398;2022-09-09T11:08:42;96569.19;;;22.85;100.00
70411;BME280;57832;46.038;11.398;2022-09-09T11:11:17;96574.41;;;22.27;100.00
70411;BME280;57832;46.038;11.398;2022-09-09T11:16:29;96565.50;;;22.01;100.00
70411;BME280;57832;46.038;11.398;2022-09-09T11:19:35;96568.25;;;21.63;100.00
70411;BME280;57832;46.038;11.398;2022-09-09T11:22:06;96564.13;;;21.35;100.00
70411;BME280;57832;46.038;11.398;2022-09-09T11:24:45;96559.13;;;22.36;100.00
70411;BME280;57832;46.038;11.398;2022-09-09T11:27:31;96558.53;;;21.88;100.00
70411;BME280;57832;46.038;11.398;2022-09-09T11:35:21;96560.19;;;21.71;100.00
70411;BME280;57832;46.038;11.398;2022-09-09T11:40:40;96562.38;;;21.99;100.00
70411;BME280;57832;46.038;11.398;2022-09-09T11:43:20;96558.09;;;21.56;100.00
70411;BME280;57832;46.038;11.398;2022-09-09T11:45:52;96561.66;;;21.60;100.00
70411;BME280;57832;46.038;11.398;2022-09-09T11:48:39;96566.34;;;21.93;100.00
70411;BME280;57832;46.038;11.398;2022-09-09T11:53:54;96570.72;;;20.99;100.00
70411;BME280;57832;46.038;11.398;2022-09-09T11:59:16;96564.91;;;20.97;100.00
70411;BME280;57832;46.038;11.398;2022-09-09T12:01:45;96556.25;;;21.00;100.00
70411;BME280;57832;46.038;11.398;2022-09-09T12:09:43;96558.97;;;20.83;100.00
70411;BME280;57832;46.038;11.398;2022-09-09T12:14:54;96557.72;;;20.80;100.00
70411;BME280;57832;46.038;11.398;2022-09-09T12:17:25;96558.63;;;21.02;100.00
70411;BME280;57832;46.038;11.398;2022-09-09T12:20:08;96559.59;;;20.88;100.00
70411;BME280;57832;46.038;11.398;2022-09-09T12:28:09;96552.72;;;20.87;100.00
70411;BME280;57832;46.038;11.398;2022-09-09T12:31:04;96551.16;;;20.60;100.00
70411;BME280;57832;46.038;11.398;2022-09-09T12:33:39;96552.25;;;20.59;100.00
70411;BME280;57832;46.038;11.398;2022-09-09T12:36:13;96559.97;;;20.43;100.00
70411;BME280;57832;46.038;11.398;2022-09-09T12:38:42;96552.91;;;20.56;100.00
70411;BME280;57832;46.038;11.398;2022-09-09T12:41:28;96548.22;;;20.27;100.00
70411;BME280;57832;46.038;11.398;2022-09-09T12:44:08;96553.38;;;20.49;100.00
70411;BME280;57832;46.038;11.398;2022-09-09T12:46:43;96547.88;;;20.63;100.00
70411;BME280;57832;46.038;11.398;2022-09-09T12:49:35;96551.41;;;20.94;100.00
70411;BME280;57832;46.038;11.398;2022-09-09T12:52:08;96548.97;;;20.62;100.00
70411;BME280;57832;46.038;11.398;2022-09-09T12:54:42;96543.28;;;20.90;100.00
70411;BME280;57832;46.038;11.398;2022-09-09T12:57:12;96538.59;;;21.26;100.00
70411;BME280;57832;46.038;11.398;2022-09-09T12:59:40;96534.97;;;21.60;100.00
70411;BME280;57832;46.038;11.398;2022-09-09T13:02:24;96530.72;;;22.65;100.00
70411;BME280;57832;46.038;11.398;2022-09-09T13:04:50;96521.19;;;23.63;100.00
70411;BME280;57832;46.038;11.398;2022-09-09T13:07:17;96522.81;;;24.33;100.00
70411;BME280;57832;46.038;11.398;2022-09-09T13:09:44;96514.25;;;24.15;100.00
70411;BME280;57832;46.038;11.398;2022-09-09T13:12:16;96509.78;;;24.47;100.00
70411;BME280;57832;46.038;11.398;2022-09-09T13:14:46;96499.66;;;23.71;100.00
70411;BME280;57832;46.038;11.398;2022-09-09T13:17:31;96493.72;;;23.78;100.00
70411;BME280;57832;46.038;11.398;2022-09-09T13:19:56;96501.34;;;23.64;100.00
70411;BME280;57832;46.038;11.398;2022-09-09T13:24:58;96499.19;;;23.82;100.00
70411;BME280;57832;46.038;11.398;2022-09-09T13:27:29;96501.75;;;24.19;100.00
70411;BME280;57832;46.038;11.398;2022-09-09T13:29:56;96498.88;;;24.56;100.00
70411;BME280;57832;46.038;11.398;2022-09-09T13:32:23;96494.31;;;23.71;100.00
70411;BME280;57832;46.038;11.398;2022-09-09T13:35:00;96488.56;;;23.45;100.00
70411;BME280;57832;46.038;11.398;2022-09-09T13:37:44;96484.66;;;23.42;100.00
70411;BME280;57832;46.038;11.398;2022-09-09T13:40:18;96484.44;;;23.10;100.00
70411;BME280;57832;46.038;11.398;2022-09-09T13:42:44;96480.94;;;23.10;100.00
70411;BME280;57832;46.038;11.398;2022-09-09T13:45:22;96483.53;;;23.06;100.00
70411;BME280;57832;46.038;11.398;2022-09-09T13:47:49;96481.38;;;22.87;100.00
70411;BME280;57832;46.038;11.398;2022-09-09T13:52:47;96477.59;;;22.88;100.00
70411;BME280;57832;46.038;11.398;2022-09-09T13:55:15;96475.41;;;22.90;100.00
70411;BME280;57832;46.038;11.398;2022-09-09T13:57:54;96476.25;;;23.56;100.00
70411;BME280;57832;46.038;11.398;2022-09-09T14:00:20;96473.53;;;24.37;100.00
70411;BME280;57832;46.038;11.398;2022-09-09T14:02:47;96462.81;;;25.69;100.00
70411;BME280;57832;46.038;11.398;2022-09-09T14:05:13;96453.47;;;25.43;88.11
70411;BME280;57832;46.038;11.398;2022-09-09T14:07:41;96459.13;;;25.77;89.45
70411;BME280;57832;46.038;11.398;2022-09-09T14:10:08;96445.66;;;26.13;92.30
70411;BME280;57832;46.038;11.398;2022-09-09T14:12:34;96443.91;;;28.08;71.41
70411;BME280;57832;46.038;11.398;2022-09-09T14:15:02;96445.84;;;26.47;78.81
70411;BME280;57832;46.038;11.398;2022-09-09T14:17:28;96444.34;;;26.26;88.38
70411;BME280;57832;46.038;11.398;2022-09-09T14:19:55;96439.25;;;25.43;87.57
70411;BME280;57832;46.038;11.398;2022-09-09T14:22:21;96442.78;;;25.11;95.98
70411;BME280;57832;46.038;11.398;2022-09-09T14:24:47;96434.03;;;25.14;99.88
70411;BME280;57832;46.038;11.398;2022-09-09T14:27:13;96438.16;;;25.63;89.16
70411;BME280;57832;46.038;11.398;2022-09-09T14:29:38;96431.75;;;26.07;99.43
70411;BME280;57832;46.038;11.398;2022-09-09T14:32:04;96434.97;;;28.00;87.07
70411;BME280;57832;46.038;11.398;2022-09-09T14:34:29;96430.69;;;27.62;83.36
70411;BME280;57832;46.038;11.398;2022-09-09T14:36:58;96426.41;;;26.77;87.14
70411;BME280;57832;46.038;11.398;2022-09-09T14:39:23;96424.63;;;26.88;95.42
70411;BME280;57832;46.038;11.398;2022-09-09T14:41:49;96424.22;;;28.04;85.15
70411;BME280;57832;46.038;11.398;2022-09-09T14:44:14;96431.28;;;28.57;76.84
70411;BME280;57832;46.038;11.398;2022-09-09T14:46:41;96419.56;;;28.39;72.55
70411;BME280;57832;46.038;11.398;2022-09-09T14:49:08;96419.19;;;28.40;72.90
70411;BME280;57832;46.038;11.398;2022-09-09T14:51:35;96413.09;;;27.72;70.62
70411;BME280;57832;46.038;11.398;2022-09-09T14:54:01;96413.16;;;26.91;94.30
70411;BME280;57832;46.038;11.398;2022-09-09T14:56:31;96424.53;;;26.81;84.31
70411;BME280;57832;46.038;11.398;2022-09-09T14:59:00;96404.09;;;26.53;85.83
70411;BME280;57832;46.038;11.398;2022-09-09T15:01:30;96408.78;;;27.10;94.19
70411;BME280;57832;46.038;11.398;2022-09-09T15:03:58;96418.44;;;27.11;85.78
70411;BME280;57832;46.038;11.398;2022-09-09T15:06:25;96412.78;;;28.56;76.88